Time;durP1;ratioP1;P1;durP2;ratioP2;P2;SDS_P1;SDS_P2;PMS_P1;PMS_P2;Temp;Humidity;BMP_temperature;BMP_pressure;BME280_temperature;BME280_humidity;BME280_pressure;Samples;Min_cycle;Max_cycle;Signal;HPM_P1;HPM_P2
2022/01/25 00:24:53;;;;;;;27.00;12.45;;;;;;;;;;5989666;29;20073;-76
2022/01/25 00:28:17;;;;;;;29.67;12.82;;;;;;;;;;6007777;29;20409;-77
2022/01/25 00:31:24;;;;;;;27.00;11.52;;;;;;;;;;6008577;29;20390;-76
2022/01/25 00:34:29;;;;;;;28.50;11.50;;;;;;;;;;6007290;29;20057;-75
2022/01/25 00:37:33;;;;;;;25.00;11.52;;;;;;;;;;6008562;29;20081;-76
2022/01/25 00:40:38;;;;;;;24.02;10.95;;;;;;;;;;6007893;29;20137;-74
2022/01/25 00:43:43;;;;;;;23.90;10.40;;;;;;;;;;6008328;29;20516;-75
2022/01/25 00:46:46;;;;;;;24.17;10.85;;;;;;;;;;6007193;29;20050;-75
2022/01/25 00:49:52;;;;;;;26.67;11.27;;;;;;;;;;6009024;29;20049;-76
2022/01/25 00:56:16;;;;;;;23.70;10.10;;;;;;;;;;6006959;29;20054;-75
2022/01/25 00:59:21;;;;;;;22.75;10.65;;;;;;;;;;6006499;29;20053;-75
2022/01/25 01:02:25;;;;;;;25.33;10.20;;;;;;;;;;6008295;29;20065;-75
2022/01/25 01:05:28;;;;;;;25.95;9.93;;;;;;;;;;6006614;29;20512;-76
2022/01/25 01:08:51;;;;;;;22.85;10.40;;;;;;;;;;6007149;29;20061;-75
2022/01/25 01:11:59;;;;;;;24.45;9.50;;;;;;;;;;6006265;29;20057;-75
2022/01/25 01:15:10;;;;;;;20.77;9.38;;;;;;;;;;6007197;29;20149;-75
2022/01/25 01:31:56;;;;;;;24.48;10.20;;;;;;;;;;6003408;29;20054;-76
2022/01/25 01:35:28;;;;;;;23.83;10.93;;;;;;;;;;6003889;29;20050;-76
2022/01/25 01:42:38;;;;;;;23.45;10.48;;;;;;;;;;5993189;29;20158;-78
2022/01/25 01:45:50;;;;;;;21.25;9.43;;;;;;;;;;6007970;29;20052;-77
2022/01/25 01:48:58;;;;;;;21.60;8.98;;;;;;;;;;6005752;29;20058;-78
2022/01/25 01:52:01;;;;;;;26.90;10.25;;;;;;;;;;6005933;29;20084;-78
2022/01/25 01:55:06;;;;;;;26.13;9.98;;;;;;;;;;6007916;29;20061;-77
2022/01/25 01:58:09;;;;;;;22.15;9.48;;;;;;;;;;6005672;29;20126;-81
2022/01/25 02:01:14;;;;;;;23.77;9.98;;;;;;;;;;6005758;29;20065;-81
2022/01/25 02:04:20;;;;;;;22.75;9.75;;;;;;;;;;6007031;29;20061;-82
2022/01/25 02:07:23;;;;;;;26.92;10.02;;;;;;;;;;6006031;29;20046;-84
2022/01/25 02:10:26;;;;;;;18.55;9.02;;;;;;;;;;6005568;29;20050;-76
2022/01/25 02:13:30;;;;;;;25.05;9.85;;;;;;;;;;6005778;29;20057;-76
2022/01/25 02:16:42;;;;;;;20.92;8.85;;;;;;;;;;6006107;29;20078;-76
2022/01/25 02:23:13;;;;;;;19.83;8.43;;;;;;;;;;6007096;29;20053;-76
2022/01/25 02:26:17;;;;;;;22.95;9.50;;;;;;;;;;6006840;29;20454;-78
2022/01/25 02:29:20;;;;;;;20.05;8.65;;;;;;;;;;6007134;29;20065;-78
2022/01/25 02:32:23;;;;;;;21.30;9.32;;;;;;;;;;6006930;29;20050;-79
2022/01/25 02:35:29;;;;;;;18.20;8.13;;;;;;;;;;6005339;29;20469;-79
2022/01/25 02:38:33;;;;;;;18.60;7.90;;;;;;;;;;6005670;29;20049;-78
2022/01/25 02:41:37;;;;;;;20.75;8.88;;;;;;;;;;6008682;29;20046;-77
2022/01/25 02:44:42;;;;;;;23.42;8.90;;;;;;;;;;6010338;29;20053;-76
2022/01/25 02:51:07;;;;;;;19.88;9.07;;;;;;;;;;6011277;29;20068;-75
2022/01/25 02:54:11;;;;;;;23.55;8.35;;;;;;;;;;6008577;29;20050;-77
2022/01/25 02:57:14;;;;;;;21.65;8.50;;;;;;;;;;6008010;29;20050;-77
2022/01/25 03:00:19;;;;;;;19.08;8.60;;;;;;;;;;6008528;29;20426;-75
2022/01/25 03:03:22;;;;;;;20.50;8.40;;;;;;;;;;6006506;29;20057;-76
2022/01/25 03:06:27;;;;;;;21.50;8.38;;;;;;;;;;6007620;29;20543;-75
2022/01/25 03:09:30;;;;;;;21.67;7.90;;;;;;;;;;6009596;29;20050;-76
2022/01/25 03:12:40;;;;;;;23.15;8.95;;;;;;;;;;6009556;29;20045;-77
2022/01/25 03:15:59;;;;;;;20.58;8.07;;;;;;;;;;6010161;29;20513;-77
2022/01/25 03:19:26;;;;;;;21.40;9.48;;;;;;;;;;6009105;29;20062;-78
2022/01/25 03:22:57;;;;;;;;;;;;;;;;;;6011307;29;20362;-77
2022/01/25 03:26:04;;;;;;;17.33;7.40;;;;;;;;;;6010408;29;20057;-77
2022/01/25 03:29:07;;;;;;;22.75;8.80;;;;;;;;;;6008649;29;20421;-78
2022/01/25 03:32:10;;;;;;;15.45;7.78;;;;;;;;;;6009963;29;20179;-78
2022/01/25 03:35:14;;;;;;;19.80;8.07;;;;;;;;;;6008636;29;20061;-78
2022/01/25 03:38:18;;;;;;;19.17;8.75;;;;;;;;;;6009896;29;20050;-77
2022/01/25 03:41:26;;;;;;;21.30;8.73;;;;;;;;;;6009654;29;20072;-77
2022/01/25 03:44:29;;;;;;;18.48;8.00;;;;;;;;;;6009314;29;20061;-78
2022/01/25 03:47:44;;;;;;;19.83;7.95;;;;;;;;;;6009992;29;20042;-77
2022/01/25 03:50:48;;;;;;;19.23;7.60;;;;;;;;;;6008084;29;20129;-76
2022/01/25 03:53:53;;;;;;;20.15;8.85;;;;;;;;;;6008689;29;20505;-77
2022/01/25 03:56:58;;;;;;;20.38;8.40;;;;;;;;;;6008258;29;20081;-76
2022/01/25 04:00:02;;;;;;;18.50;7.93;;;;;;;;;;6009318;29;20046;-77
2022/01/25 04:03:17;;;;;;;21.55;8.45;;;;;;;;;;6007920;29;20064;-77
2022/01/25 04:06:21;;;;;;;18.70;7.95;;;;;;;;;;6009080;29;20054;-76
2022/01/25 04:09:28;;;;;;;21.27;9.50;;;;;;;;;;6008207;29;20505;-77
2022/01/25 04:12:32;;;;;;;18.80;7.72;;;;;;;;;;6008931;29;20045;-77
2022/01/25 04:15:40;;;;;;;19.35;7.63;;;;;;;;;;6007842;29;20136;-75
2022/01/25 04:18:55;;;;;;;19.27;9.23;;;;;;;;;;6007648;29;20050;-76
2022/01/25 04:25:22;;;;;;;19.40;8.35;;;;;;;;;;6007436;29;20068;-76
2022/01/25 04:28:26;;;;;;;20.42;9.30;;;;;;;;;;6007400;29;20474;-77
2022/01/25 04:31:30;;;;;;;20.98;8.98;;;;;;;;;;6007716;29;20053;-76
2022/01/25 04:34:42;;;;;;;20.73;8.55;;;;;;;;;;6007475;29;20057;-78
2022/01/25 04:54:44;;;;;;;20.10;8.88;;;;;;;;;;6006564;29;20413;-78
2022/01/25 04:57:54;;;;;;;20.63;8.70;;;;;;;;;;6008416;29;20050;-78
2022/01/25 05:00:59;;;;;;;18.30;8.50;;;;;;;;;;6008418;29;20066;-76
2022/01/25 05:04:07;;;;;;;20.17;9.77;;;;;;;;;;6008122;29;20130;-80
2022/01/25 05:07:15;;;;;;;21.23;9.60;;;;;;;;;;6006696;29;20483;-76
2022/01/25 05:10:18;;;;;;;19.60;9.23;;;;;;;;;;6006730;29;20069;-78
2022/01/25 05:13:38;;;;;;;19.65;9.73;;;;;;;;;;6006369;29;20459;-77
2022/01/25 05:23:17;;;;;;;19.08;8.60;;;;;;;;;;6006568;29;20050;-77
2022/01/25 05:26:20;;;;;;;19.90;8.90;;;;;;;;;;6007500;29;20060;-77
2022/01/25 05:29:24;;;;;;;25.77;11.05;;;;;;;;;;6007368;29;20405;-77
2022/01/25 05:32:32;;;;;;;25.67;10.88;;;;;;;;;;6006202;29;20050;-77
2022/01/25 05:35:37;;;;;;;24.10;11.05;;;;;;;;;;6006668;29;20058;-79
2022/01/25 05:38:43;;;;;;;24.77;10.15;;;;;;;;;;6005990;29;20434;-78
2022/01/25 05:41:54;;;;;;;18.88;9.93;;;;;;;;;;6007115;29;20042;-79
2022/01/25 05:45:18;;;;;;;24.10;9.30;;;;;;;;;;6005635;29;20046;-80
2022/01/25 05:48:22;;;;;;;20.17;8.32;;;;;;;;;;6005659;29;20052;-79
2022/01/25 05:51:25;;;;;;;23.90;9.63;;;;;;;;;;6005585;29;20066;-77
2022/01/25 05:54:30;;;;;;;24.48;10.88;;;;;;;;;;6007165;29;20110;-76
2022/01/25 05:57:36;;;;;;;23.20;10.03;;;;;;;;;;6006192;29;20072;-78
2022/01/25 06:00:40;;;;;;;20.50;9.38;;;;;;;;;;6006465;29;20313;-79
2022/01/25 06:03:45;;;;;;;23.42;10.80;;;;;;;;;;6006984;29;20042;-77
2022/01/25 06:06:48;;;;;;;;;;;;;;;;;;6007617;29;20118;-77
2022/01/25 06:09:51;;;;;;;19.83;8.80;;;;;;;;;;6006907;29;19989;-76
2022/01/25 06:12:57;;;;;;;24.23;9.93;;;;;;;;;;6007137;29;20046;-75
2022/01/25 06:16:02;;;;;;;22.60;10.47;;;;;;;;;;6009137;29;20056;-76
2022/01/25 06:19:07;;;;;;;21.55;10.50;;;;;;;;;;6010628;29;20054;-77
2022/01/25 06:22:11;;;;;;;22.75;9.93;;;;;;;;;;6011067;29;20662;-79
2022/01/25 06:25:15;;;;;;;24.50;9.88;;;;;;;;;;6011225;29;20369;-78
2022/01/25 06:28:19;;;;;;;24.23;10.65;;;;;;;;;;6011715;29;20075;-77
2022/01/25 06:31:23;;;;;;;20.57;9.40;;;;;;;;;;6010523;29;20163;-85
2022/01/25 06:34:28;;;;;;;20.30;9.70;;;;;;;;;;6011547;29;20588;-83
2022/01/25 06:37:34;;;;;;;21.38;9.98;;;;;;;;;;6014428;29;20054;-89
2022/01/25 06:40:37;;;;;;;20.15;9.82;;;;;;;;;;6012990;29;20056;-85
2022/01/25 06:43:40;;;;;;;22.40;9.98;;;;;;;;;;6011748;29;20046;-87
2022/01/25 06:46:45;;;;;;;23.55;9.77;;;;;;;;;;6010203;29;20050;-83
2022/01/25 06:49:51;;;;;;;20.50;10.63;;;;;;;;;;6011358;29;20054;-81
2022/01/25 06:52:54;;;;;;;20.92;9.82;;;;;;;;;;6009822;29;20145;-83
2022/01/25 06:56:14;;;;;;;24.95;9.40;;;;;;;;;;6010163;29;20061;-80
2022/01/25 06:59:17;;;;;;;77.55;34.15;;;;;;;;;;6008033;29;20056;-81
2022/01/25 07:02:25;;;;;;;25.52;11.32;;;;;;;;;;6009332;29;20088;-81
2022/01/25 07:05:30;;;;;;;21.38;10.63;;;;;;;;;;6010202;29;20091;-79
2022/01/25 07:08:33;;;;;;;22.92;10.50;;;;;;;;;;6010746;29;20057;-79
2022/01/25 07:11:38;;;;;;;21.08;9.90;;;;;;;;;;6007538;29;20046;-83
2022/01/25 07:14:43;;;;;;;21.73;10.63;;;;;;;;;;5991989;29;20053;-81
2022/01/25 07:17:47;;;;;;;23.35;9.95;;;;;;;;;;6008468;29;20298;-83
2022/01/25 07:20:56;;;;;;;22.15;10.48;;;;;;;;;;6007109;29;20070;-86
2022/01/25 07:24:00;;;;;;;24.75;11.20;;;;;;;;;;6006897;29;20053;-79
2022/01/25 07:27:04;;;;;;;24.02;11.15;;;;;;;;;;6007299;29;20085;-79
2022/01/25 07:30:08;;;;;;;24.15;11.70;;;;;;;;;;6008810;29;20401;-78
2022/01/25 07:33:12;;;;;;;21.15;10.25;;;;;;;;;;6009115;29;20054;-79
2022/01/25 07:36:20;;;;;;;25.08;11.13;;;;;;;;;;6008296;29;20066;-78
2022/01/25 07:39:28;;;;;;;24.30;10.25;;;;;;;;;;6010215;29;20057;-79
2022/01/25 07:42:35;;;;;;;25.38;11.20;;;;;;;;;;6008566;29;20046;-78
2022/01/25 07:45:53;;;;;;;21.63;11.38;;;;;;;;;;6009158;29;20054;-76
2022/01/25 07:49:01;;;;;;;23.52;10.57;;;;;;;;;;6008050;29;20053;-77
2022/01/25 07:52:11;;;;;;;25.83;11.27;;;;;;;;;;5994056;29;20494;-77
2022/01/25 07:55:14;;;;;;;28.83;11.75;;;;;;;;;;6008728;29;20178;-76
2022/01/25 07:58:18;;;;;;;25.70;12.63;;;;;;;;;;6008974;29;20058;-77
2022/01/25 08:01:22;;;;;;;27.08;12.88;;;;;;;;;;6007723;29;20154;-76
2022/01/25 08:04:27;;;;;;;27.98;11.88;;;;;;;;;;6009497;29;20050;-77
2022/01/25 08:07:37;;;;;;;27.17;12.57;;;;;;;;;;6008719;29;20505;-77
2022/01/25 08:10:47;;;;;;;26.73;12.65;;;;;;;;;;6007819;29;20057;-77
2022/01/25 08:13:52;;;;;;;27.17;13.20;;;;;;;;;;6007706;29;20053;-79
2022/01/25 08:17:00;;;;;;;28.85;13.45;;;;;;;;;;6008416;29;20053;-76
2022/01/25 08:20:12;;;;;;;25.63;12.25;;;;;;;;;;6007406;29;20126;-76
2022/01/25 08:23:33;;;;;;;30.35;12.95;;;;;;;;;;6007738;29;20053;-77
2022/01/25 08:26:40;;;;;;;30.65;12.85;;;;;;;;;;6007535;29;20056;-76
2022/01/25 08:29:44;;;;;;;33.10;14.38;;;;;;;;;;6007791;29;20057;-76
2022/01/25 08:33:02;;;;;;;28.42;14.55;;;;;;;;;;6009042;29;20054;-78
2022/01/25 08:36:06;;;;;;;35.17;14.38;;;;;;;;;;6007324;29;20054;-77
2022/01/25 08:39:20;;;;;;;47.33;22.88;;;;;;;;;;6007083;29;20065;-78
2022/01/25 08:42:32;;;;;;;28.20;13.88;;;;;;;;;;6007408;29;20053;-76
2022/01/25 08:45:49;;;;;;;39.87;15.20;;;;;;;;;;6006947;29;20540;-77
2022/01/25 08:48:58;;;;;;;29.48;14.70;;;;;;;;;;6008288;29;20305;-76
2022/01/25 08:52:07;;;;;;;35.90;16.80;;;;;;;;;;6007267;29;20088;-76
2022/01/25 08:55:17;;;;;;;29.92;14.60;;;;;;;;;;5991903;29;20057;-77
2022/01/25 08:58:26;;;;;;;30.75;14.95;;;;;;;;;;6006506;29;20046;-76
2022/01/25 09:01:30;;;;;;;34.95;15.48;;;;;;;;;;5991542;29;20065;-77
2022/01/25 09:04:33;;;;;;;32.58;16.35;;;;;;;;;;6005574;29;20129;-76
2022/01/25 09:07:37;;;;;;;34.88;15.43;;;;;;;;;;6004645;29;20053;-77
2022/01/25 09:10:41;;;;;;;37.28;15.10;;;;;;;;;;6006626;29;20054;-77
2022/01/25 09:13:45;;;;;;;36.53;16.77;;;;;;;;;;6004806;29;20578;-76
2022/01/25 09:16:48;;;;;;;34.58;15.63;;;;;;;;;;6005535;29;20086;-76
2022/01/25 09:19:51;;;;;;;39.10;16.38;;;;;;;;;;6005221;29;20052;-76
2022/01/25 09:23:03;;;;;;;91.40;39.47;;;;;;;;;;6006218;29;20054;-81
2022/01/25 09:26:11;;;;;;;43.15;17.20;;;;;;;;;;6005153;29;20106;-75
2022/01/25 09:29:14;;;;;;;33.85;16.23;;;;;;;;;;6005180;29;20137;-77
2022/01/25 09:32:19;;;;;;;38.65;15.55;;;;;;;;;;6005120;29;20413;-78
2022/01/25 09:35:22;;;;;;;35.25;15.80;;;;;;;;;;6004274;29;20054;-79
2022/01/25 09:38:26;;;;;;;42.40;17.48;;;;;;;;;;6006387;29;20524;-78
2022/01/25 09:41:31;;;;;;;41.63;17.40;;;;;;;;;;6005869;29;20102;-78
2022/01/25 09:44:34;;;;;;;34.43;17.13;;;;;;;;;;6005969;29;20053;-78
2022/01/25 09:47:40;;;;;;;44.67;18.02;;;;;;;;;;6005799;29;20293;-78
2022/01/25 09:50:44;;;;;;;37.83;18.77;;;;;;;;;;6004011;29;20532;-78
2022/01/25 09:53:48;;;;;;;40.85;18.13;;;;;;;;;;6006004;29;20190;-78
2022/01/25 09:56:52;;;;;;;36.85;16.88;;;;;;;;;;6004439;29;20391;-78
2022/01/25 09:59:56;;;;;;;39.17;17.50;;;;;;;;;;6006042;29;20046;-77
2022/01/25 10:03:06;;;;;;;31.77;15.48;;;;;;;;;;6005545;29;20320;-78
2022/01/25 10:06:12;;;;;;;35.20;16.50;;;;;;;;;;6004512;29;20065;-78
2022/01/25 10:09:16;;;;;;;35.08;15.50;;;;;;;;;;6004280;29;20502;-78
2022/01/25 10:12:22;;;;;;;28.60;14.25;;;;;;;;;;6005457;29;20098;-78
2022/01/25 10:15:27;;;;;;;33.78;15.55;;;;;;;;;;6005520;29;20053;-77
2022/01/25 10:18:48;;;;;;;35.97;16.17;;;;;;;;;;6004045;29;20054;-77
2022/01/25 10:21:54;;;;;;;32.17;15.05;;;;;;;;;;6004182;29;20038;-78
2022/01/25 10:24:57;;;;;;;38.58;15.98;;;;;;;;;;6003935;29;20186;-78
2022/01/25 10:28:03;;;;;;;30.88;14.15;;;;;;;;;;6003946;29;20186;-77
2022/01/25 10:31:07;;;;;;;29.85;15.32;;;;;;;;;;6003893;29;20420;-78
2022/01/25 10:34:11;;;;;;;29.17;14.05;;;;;;;;;;6005618;29;20065;-77
2022/01/25 10:37:17;;;;;;;29.23;14.43;;;;;;;;;;6003956;29;20050;-78
2022/01/25 10:40:34;;;;;;;27.17;13.27;;;;;;;;;;6004182;29;20054;-77
2022/01/25 10:43:39;;;;;;;33.33;15.07;;;;;;;;;;6005316;29;20046;-78
2022/01/25 10:46:43;;;;;;;31.75;15.98;;;;;;;;;;6003734;29;20087;-79
2022/01/25 10:49:46;;;;;;;30.88;15.43;;;;;;;;;;6004947;29;20206;-79
2022/01/25 10:53:04;;;;;;;29.10;14.45;;;;;;;;;;6004965;29;20053;-81
2022/01/25 10:56:07;;;;;;;30.35;14.48;;;;;;;;;;6005348;29;20050;-78
2022/01/25 10:59:13;;;;;;;30.35;13.95;;;;;;;;;;6004932;29;20154;-78
2022/01/25 11:02:21;;;;;;;28.75;13.55;;;;;;;;;;6007256;29;20060;-79
2022/01/25 11:05:31;;;;;;;25.23;12.55;;;;;;;;;;6007343;29;20390;-78
2022/01/25 11:08:34;;;;;;;;;;;;;;;;;;6009619;29;20128;-79
2022/01/25 11:11:41;;;;;;;26.85;13.00;;;;;;;;;;6008807;29;20416;-77
2022/01/25 11:14:53;;;;;;;27.60;12.77;;;;;;;;;;6007723;29;20102;-77
2022/01/25 11:17:57;;;;;;;26.63;13.52;;;;;;;;;;6007751;29;20049;-79
2022/01/25 11:21:00;;;;;;;25.05;14.27;;;;;;;;;;6007599;29;20503;-77
2022/01/25 11:24:05;;;;;;;23.30;11.73;;;;;;;;;;6008775;29;20049;-76
2022/01/25 11:27:08;;;;;;;26.92;13.27;;;;;;;;;;5992176;29;20049;-77
2022/01/25 11:30:15;;;;;;;23.50;12.07;;;;;;;;;;6007409;29;20079;-78
2022/01/25 11:33:19;;;;;;;24.95;12.07;;;;;;;;;;6007447;29;20195;-77
2022/01/25 11:36:25;;;;;;;25.60;12.10;;;;;;;;;;5992554;29;20053;-79
2022/01/25 11:39:31;;;;;;;26.63;11.90;;;;;;;;;;6007332;29;20060;-78
2022/01/25 11:42:38;;;;;;;25.33;12.82;;;;;;;;;;6006841;29;20057;-79
2022/01/25 11:45:48;;;;;;;25.85;11.52;;;;;;;;;;6007263;29;20054;-80
2022/01/25 11:48:51;;;;;;;25.10;11.60;;;;;;;;;;6008948;29;20501;-81
2022/01/25 11:52:06;;;;;;;23.55;12.18;;;;;;;;;;6006907;29;20606;-81
2022/01/25 11:55:20;;;;;;;25.90;12.60;;;;;;;;;;6006783;29;20406;-80
2022/01/25 11:58:27;;;;;;;23.85;12.13;;;;;;;;;;5992274;29;20129;-81
2022/01/25 12:01:33;;;;;;;30.10;14.20;;;;;;;;;;6008283;29;20058;-80
2022/01/25 12:04:36;;;;;;;26.77;13.05;;;;;;;;;;6006366;29;20050;-78
2022/01/25 12:07:57;;;;;;;26.73;12.98;;;;;;;;;;6006550;29;20058;-79
2022/01/25 12:11:06;;;;;;;25.17;13.27;;;;;;;;;;6006743;29;20049;-77
2022/01/25 12:14:26;;;;;;;27.83;12.18;;;;;;;;;;6005855;29;20482;-78
2022/01/25 12:17:34;;;;;;;24.45;12.80;;;;;;;;;;6007695;29;20075;-78
2022/01/25 12:20:48;;;;;;;26.45;12.32;;;;;;;;;;6007336;29;20497;-79
2022/01/25 12:24:12;;;;;;;25.60;13.43;;;;;;;;;;6006234;29;20077;-79
2022/01/25 12:27:22;;;;;;;27.58;12.50;;;;;;;;;;6006117;29;20050;-79
2022/01/25 12:30:34;;;;;;;24.83;12.38;;;;;;;;;;6006130;29;20126;-79
2022/01/25 12:33:40;;;;;;;27.45;12.50;;;;;;;;;;6006018;29;20057;-79
2022/01/25 12:36:43;;;;;;;31.83;12.10;;;;;;;;;;6006124;29;20141;-82
2022/01/25 12:39:47;;;;;;;23.00;12.52;;;;;;;;;;6006075;29;20058;-81
2022/01/25 12:42:50;;;;;;;23.95;12.02;;;;;;;;;;6007293;29;20088;-81
2022/01/25 12:45:56;;;;;;;26.95;11.75;;;;;;;;;;6006003;29;20045;-82
2022/01/25 12:49:01;;;;;;;27.58;12.85;;;;;;;;;;6006283;29;20219;-80
2022/01/25 12:52:06;;;;;;;24.27;11.35;;;;;;;;;;6005906;29;20102;-81
2022/01/25 12:55:10;;;;;;;23.50;11.65;;;;;;;;;;6005711;29;20605;-81
2022/01/25 12:58:13;;;;;;;23.10;10.85;;;;;;;;;;6006970;29;20417;-82
2022/01/25 13:01:18;;;;;;;24.65;11.18;;;;;;;;;;6005741;29;20083;-81
2022/01/25 13:04:23;;;;;;;23.00;12.68;;;;;;;;;;6006986;29;20057;-81
2022/01/25 13:07:27;;;;;;;20.83;11.77;;;;;;;;;;6005658;29;20406;-83
2022/01/25 13:10:32;;;;;;;20.27;11.43;;;;;;;;;;6005312;29;20050;-82
2022/01/25 13:13:45;;;;;;;25.17;13.05;;;;;;;;;;6006879;29;20190;-83
2022/01/25 13:16:53;;;;;;;24.85;13.13;;;;;;;;;;6005847;29;20104;-81
2022/01/25 13:20:01;;;;;;;23.23;13.05;;;;;;;;;;6004081;29;20401;-81
2022/01/25 13:23:05;;;;;;;25.48;13.35;;;;;;;;;;6005002;29;20058;-81
2022/01/25 13:26:15;;;;;;;25.83;13.57;;;;;;;;;;6003978;29;20390;-84
2022/01/25 13:32:40;;;;;;;27.15;14.05;;;;;;;;;;6005249;29;20493;-85
2022/01/25 13:35:50;;;;;;;27.45;15.13;;;;;;;;;;6004732;29;20046;-83
2022/01/25 13:38:53;;;;;;;21.95;12.65;;;;;;;;;;6004590;29;20054;-83
2022/01/25 13:42:03;;;;;;;25.27;12.73;;;;;;;;;;6005069;29;20046;-83
2022/01/25 13:48:29;;;;;;;24.33;13.45;;;;;;;;;;6006246;29;20114;-85
2022/01/25 13:51:39;;;;;;;24.38;13.95;;;;;;;;;;6004626;29;20501;-83
2022/01/25 13:54:46;;;;;;;26.60;14.20;;;;;;;;;;6005294;29;20049;-84
2022/01/25 13:57:50;;;;;;;31.98;15.52;;;;;;;;;;6005967;29;20075;-83
2022/01/25 14:00:54;;;;;;;26.67;14.48;;;;;;;;;;6004475;29;20093;-82
2022/01/25 14:03:58;;;;;;;26.95;15.35;;;;;;;;;;6004230;29;20106;-83
2022/01/25 14:07:04;;;;;;;29.52;15.00;;;;;;;;;;6004071;29;20045;-86
2022/01/25 14:10:09;;;;;;;27.58;14.48;;;;;;;;;;6004333;29;20691;-85
2022/01/25 14:23:24;;;;;;;30.73;16.30;;;;;;;;;;6005219;29;20049;-84
2022/01/25 14:26:34;;;;;;;31.02;16.58;;;;;;;;;;6005015;29;20128;-84
2022/01/25 14:29:40;;;;;;;32.60;16.42;;;;;;;;;;6005343;29;20520;-85
2022/01/25 14:32:44;;;;;;;34.40;18.05;;;;;;;;;;6004146;29;20050;-85
2022/01/25 14:35:48;;;;;;;34.15;17.08;;;;;;;;;;5989623;29;20109;-84
2022/01/25 14:38:54;;;;;;;35.47;18.23;;;;;;;;;;6007603;29;20121;-85
2022/01/25 14:42:00;;;;;;;44.47;18.92;;;;;;;;;;6009157;29;20038;-84
2022/01/25 14:45:04;;;;;;;30.92;16.52;;;;;;;;;;6007522;29;20053;-85
2022/01/25 14:48:14;;;;;;;35.30;17.83;;;;;;;;;;6007806;29;20042;-84
2022/01/25 14:51:18;;;;;;;38.75;19.83;;;;;;;;;;6009930;29;20053;-88
2022/01/25 14:54:24;;;;;;;39.75;20.35;;;;;;;;;;6009298;29;20046;-88
2022/01/25 14:57:39;;;;;;;39.20;20.77;;;;;;;;;;6009218;29;20057;-88
2022/01/25 15:00:45;;;;;;;44.20;22.83;;;;;;;;;;6010175;29;20042;-86
2022/01/25 15:03:51;;;;;;;43.40;21.67;;;;;;;;;;6009056;29;20042;-83
2022/01/25 15:06:55;;;;;;;39.83;20.92;;;;;;;;;;6007759;29;20110;-86
2022/01/25 15:10:03;;;;;;;40.85;21.13;;;;;;;;;;6006209;29;20057;-85
2022/01/25 15:13:06;;;;;;;42.30;22.42;;;;;;;;;;6007021;29;20053;-80
2022/01/25 15:16:12;;;;;;;45.47;24.25;;;;;;;;;;6009100;29;20106;-81
2022/01/25 15:19:21;;;;;;;50.35;24.60;;;;;;;;;;6009281;29;20065;-81
2022/01/25 15:22:28;;;;;;;47.58;25.27;;;;;;;;;;6006917;29;20049;-81
2022/01/25 15:25:34;;;;;;;48.85;24.60;;;;;;;;;;6005039;29;20133;-81
2022/01/25 15:28:41;;;;;;;49.22;24.63;;;;;;;;;;6006525;29;20046;-80
2022/01/25 15:31:44;;;;;;;48.03;24.85;;;;;;;;;;6005192;29;20053;-79
2022/01/25 15:34:48;;;;;;;52.20;25.90;;;;;;;;;;6004878;29;20413;-78
2022/01/25 15:37:51;;;;;;;47.00;24.30;;;;;;;;;;6005017;29;20061;-80
2022/01/25 15:40:56;;;;;;;45.08;24.02;;;;;;;;;;6005462;29;20497;-80
2022/01/25 15:44:03;;;;;;;50.10;25.40;;;;;;;;;;6006260;29;20497;-80
2022/01/25 15:47:09;;;;;;;48.33;24.70;;;;;;;;;;6008100;29;20049;-81
2022/01/25 15:50:12;;;;;;;50.17;24.77;;;;;;;;;;6007615;29;20069;-80
2022/01/25 15:53:16;;;;;;;48.03;24.70;;;;;;;;;;6008872;29;20386;-80
2022/01/25 15:56:21;;;;;;;49.40;24.65;;;;;;;;;;6008944;29;20520;-82
2022/01/25 15:59:24;;;;;;;;;;;;;;;;;;6007535;29;20555;-82
2022/01/25 16:02:30;;;;;;;53.33;25.60;;;;;;;;;;6006919;29;19960;-77
2022/01/25 16:05:35;;;;;;;52.33;26.23;;;;;;;;;;6009159;29;20042;-80
2022/01/25 16:08:40;;;;;;;55.30;27.50;;;;;;;;;;6007998;29;20141;-78
2022/01/25 16:11:46;;;;;;;58.95;27.27;;;;;;;;;;6007684;29;20350;-77
2022/01/25 16:14:49;;;;;;;60.05;29.10;;;;;;;;;;6006969;29;20565;-84
2022/01/25 16:17:52;;;;;;;60.03;29.13;;;;;;;;;;6008632;29;20049;-76
2022/01/25 16:20:55;;;;;;;57.10;29.05;;;;;;;;;;6008151;29;20060;-78
2022/01/25 16:23:59;;;;;;;56.97;30.25;;;;;;;;;;6008340;29;20118;-76
2022/01/25 16:27:04;;;;;;;60.20;28.98;;;;;;;;;;6007769;29;20182;-79
2022/01/25 16:30:08;;;;;;;63.70;30.45;;;;;;;;;;6007915;29;20054;-79
2022/01/25 16:33:11;;;;;;;58.63;29.92;;;;;;;;;;6007099;29;20587;-77
2022/01/25 16:36:17;;;;;;;55.13;28.30;;;;;;;;;;6008057;29;20489;-78
2022/01/25 16:39:23;;;;;;;61.63;29.93;;;;;;;;;;6006161;29;20061;-80
2022/01/25 16:42:32;;;;;;;62.40;29.95;;;;;;;;;;6006363;29;20332;-81
2022/01/25 16:45:37;;;;;;;59.50;29.00;;;;;;;;;;6007597;29;20095;-77
2022/01/25 16:48:40;;;;;;;61.90;29.25;;;;;;;;;;6007582;29;20395;-78
2022/01/25 16:51:44;;;;;;;55.30;27.77;;;;;;;;;;6007624;29;20073;-78
2022/01/25 16:54:47;;;;;;;57.38;29.27;;;;;;;;;;6006020;29;20042;-77
2022/01/25 16:58:12;;;;;;;57.08;29.38;;;;;;;;;;6005272;29;20046;-78
2022/01/25 17:01:17;;;;;;;65.40;31.45;;;;;;;;;;6006340;29;20068;-78
2022/01/25 17:04:20;;;;;;;58.35;29.98;;;;;;;;;;6005239;29;20074;-78
2022/01/25 17:07:23;;;;;;;60.95;28.80;;;;;;;;;;6005606;29;20405;-77
2022/01/25 17:10:28;;;;;;;55.47;28.58;;;;;;;;;;6006544;29;20136;-77
2022/01/25 17:13:36;;;;;;;60.95;28.67;;;;;;;;;;6006203;29;20060;-80
2022/01/25 17:16:39;;;;;;;;;;;;;;;;;;6007077;29;20061;-76
2022/01/25 17:19:42;;;;;;;57.88;26.70;;;;;;;;;;6006452;29;20261;-76
2022/01/25 17:22:45;;;;;;;57.20;28.75;;;;;;;;;;6004709;29;20081;-77
2022/01/25 17:25:49;;;;;;;55.20;27.95;;;;;;;;;;6004747;29;20053;-78
2022/01/25 17:28:55;;;;;;;57.70;28.90;;;;;;;;;;6006320;29;20521;-76
2022/01/25 17:31:58;;;;;;;57.33;28.88;;;;;;;;;;6006214;29;20061;-76
2022/01/25 17:35:02;;;;;;;56.67;29.83;;;;;;;;;;6004576;29;20516;-78
2022/01/25 17:38:05;;;;;;;58.38;28.65;;;;;;;;;;6004977;29;20054;-78
2022/01/25 17:41:09;;;;;;;52.65;28.45;;;;;;;;;;6005931;29;20053;-79
2022/01/25 17:44:14;;;;;;;54.83;28.17;;;;;;;;;;6004460;29;20382;-79
2022/01/25 17:47:17;;;;;;;54.13;27.25;;;;;;;;;;6004706;29;20046;-75
2022/01/25 17:50:21;;;;;;;52.75;28.88;;;;;;;;;;6005205;29;20050;-76
2022/01/25 17:53:24;;;;;;;56.97;27.65;;;;;;;;;;6006075;29;20049;-76
2022/01/25 17:56:29;;;;;;;59.65;29.83;;;;;;;;;;6005161;29;20405;-76
2022/01/25 17:59:34;;;;;;;57.63;29.40;;;;;;;;;;6004699;29;20046;-76
2022/01/25 18:02:39;;;;;;;56.20;27.83;;;;;;;;;;6004766;29;20065;-77
2022/01/25 18:05:42;;;;;;;58.45;29.48;;;;;;;;;;6005599;29;20057;-77
2022/01/25 18:08:46;;;;;;;56.85;30.27;;;;;;;;;;6004657;29;20421;-77
2022/01/25 18:11:49;;;;;;;66.47;33.10;;;;;;;;;;6007042;29;20056;-77
2022/01/25 18:14:55;;;;;;;63.15;30.88;;;;;;;;;;6009676;29;20053;-76
2022/01/25 18:18:00;;;;;;;62.55;30.95;;;;;;;;;;6010879;29;20042;-77
2022/01/25 18:21:08;;;;;;;;;;;;;;;;;;6010137;29;20054;-77
2022/01/25 18:24:22;;;;;;;59.85;29.20;;;;;;;;;;6010279;29;19973;-77
2022/01/25 18:27:25;;;;;;;60.58;30.23;;;;;;;;;;6009292;29;20203;-77
2022/01/25 18:30:29;;;;;;;57.08;28.77;;;;;;;;;;6010937;29;20049;-78
2022/01/25 18:33:35;;;;;;;54.65;28.50;;;;;;;;;;6009968;29;20066;-77
2022/01/25 18:36:42;;;;;;;58.67;30.80;;;;;;;;;;6007808;29;20054;-82
2022/01/25 18:39:45;;;;;;;53.25;27.30;;;;;;;;;;6009938;29;20046;-76
2022/01/25 18:42:48;;;;;;;58.38;28.80;;;;;;;;;;6009907;29;20109;-75
2022/01/25 18:45:55;;;;;;;56.00;26.90;;;;;;;;;;6008637;29;20525;-76
2022/01/25 18:49:02;;;;;;;55.53;28.30;;;;;;;;;;6010137;29;20046;-77
2022/01/25 18:52:08;;;;;;;60.10;28.02;;;;;;;;;;6009940;29;20058;-75
2022/01/25 18:55:11;;;;;;;54.80;26.50;;;;;;;;;;6008481;29;20129;-76
2022/01/25 18:58:14;;;;;;;54.90;27.45;;;;;;;;;;6007891;29;20053;-77
2022/01/25 19:01:22;;;;;;;55.67;26.80;;;;;;;;;;6008248;29;20061;-80
2022/01/25 19:04:25;;;;;;;55.85;26.17;;;;;;;;;;6008240;29;20489;-79
2022/01/25 19:07:29;;;;;;;51.60;26.27;;;;;;;;;;6008941;29;20494;-79
2022/01/25 19:10:32;;;;;;;53.38;25.95;;;;;;;;;;6008302;29;20425;-80
2022/01/25 19:13:39;;;;;;;50.33;24.25;;;;;;;;;;6008232;29;20054;-80
2022/01/25 19:16:46;;;;;;;55.47;25.60;;;;;;;;;;6009314;29;20433;-80
2022/01/25 19:19:51;;;;;;;52.67;26.02;;;;;;;;;;6007568;29;20450;-75
2022/01/25 19:22:57;;;;;;;50.53;24.90;;;;;;;;;;6007845;29;20073;-76
2022/01/25 19:26:01;;;;;;;51.35;23.98;;;;;;;;;;6008810;29;20057;-76
2022/01/25 19:29:04;;;;;;;53.17;23.50;;;;;;;;;;6007761;29;20054;-77
2022/01/25 19:32:11;;;;;;;48.00;22.93;;;;;;;;;;6007567;29;20132;-77
2022/01/25 19:35:15;;;;;;;52.40;25.95;;;;;;;;;;6007886;29;20405;-76
2022/01/25 19:38:18;;;;;;;53.05;25.35;;;;;;;;;;6007523;29;20527;-78
2022/01/25 19:41:21;;;;;;;51.65;24.88;;;;;;;;;;6007276;29;20050;-75
2022/01/25 19:44:26;;;;;;;51.63;24.65;;;;;;;;;;6008964;29;20050;-78